Terminal Aerodrome Forecast
Issued by NWS

Home | Current Version | Previous Version | Text Only | Print | Product List | Glossary On
Versions: 1 2 3 4 5 6 7 8 9 10 11 12 13
433
FTUS43 KTOP 280520
TAFFOE
TAF
KFOE 280520Z 2806/2906 08009KT P6SM -SHRA VCTS SCT020 OVC070CB
     FM280900 09012KT P6SM SHRA VCTS SCT017 OVC030CB
     FM281100 11011KT P6SM VCSH OVC011
     FM281700 17008KT P6SM OVC015
     FM282100 VRB05KT P6SM BKN035
     FM290100 02009KT P6SM OVC019=

USA.gov is the U.S. government's official web portal to all federal, state and local government web resources and services.